Milligan, Nebraska
Current Conditions -  °F | °C
As of 10:15 AM on Sunday 23 Nov 2014 (Local Time) from KHJH Reporting Station
Overcast Overcast  
Wind Chill:   Ceiling: 3200
Heat Index:   Visibility: 10mi
Dew Point:   Wind: 22mph
Humidity: 73%   Direction: 350°N
Pressure: 29.54"   Gusts: 31mph
Location:  40.5°N, 97.39°W
Report Text: KHJH 231615Z AUTO 35019G27KT 10SM BKN032 OVC038 08/03 A2954 RMK AO2 T00770031
Loading
Personal Weather Stations






























Interactive Weather Map New forecast layout! Learn more

10-Day Weather Forecast

Advertisements
Track Severe Weather on mobile